بغداد, العراق

02:09 PM AST on سبتهبر 01, 2014 (GMT +0300)
BAGHDAD INTL | Change Station
CLOSE
Current Station
Airport
Location: BAGHDAD INTL,
Elevation: 115 ft
Nearby Weather Stations

Elev 115 ft 33.26 °N, 44.23 °E | Updated 9 minutes ago

Clear
صافية
113 °F
Feels Like 113 °F
N
8
ريح متغير ريح from متغير

هذا اليوم
High -- | Low -- °F
--% Chance of Precip.
Yesterday
High -- | Low -- °F
Precip. -- في
5:37 AM 6:28 PM
الهلال الأول, 40% visible
الضغط 29.53 في
وضوح الرؤية -9999.0 أميال
سحابات
نقطة الندى 43 °F
الرطوبة 10%
Rainfall 0.00 في
عمق الثلج Not available.
الأشعة فوق البنفسجية Not available.
Pollen Not available.
جودة الهواء Not available.
Flu Activity Not available.
METAR ORBI 011100Z VRB07KT CAVOK 45/06 Q1000 NOSIG

More Conditions Fewer Conditions

الضغط 29.53 في
وضوح الرؤية -9999.0 أميال
سحابات
نقطة الندى 43 °F
الرطوبة 10%
Rainfall 0.00 في
عمق الثلج Not available.
الأشعة فوق البنفسجية Not available.
Pollen Not available.
جودة الهواء Not available.
Flu Activity Not available.
METAR ORBI 011100Z VRB07KT CAVOK 45/06 Q1000 NOSIG

More Conditions Fewer Conditions

10-Day Weather Forecast

Almanac

علم الفلك

Sep. 01, 2014 Rise Set
Actual Time 5:37 AM AST 6:28 PM AST
Civil Twilight 5:11 AM AST 6:53 PM AST
Nautical Twilight 4:41 AM AST 7:23 PM AST
Astronomical Twilight 4:11 AM AST 7:54 PM AST
قمر 11:41 AM AST 10:32 PM AST
Length Of Visible Light 13h 42m
طول الیوم
12h 51m
Tomorrow will be 1m 58s shorter.
الهلال الأول, 40% of the Moon is Illuminated
هذا اليوم
الهلال الأول
Sep 2
الربع الاول
Sep 8
بدر
Sep 15
الربع الآخر
Sep 24
New

Yesterday's Extremes

Country Highs Country Lows

Community

WunderPhotos

Upload Photos

1,749,187 photos uploaded!

Nearby

جودة الهواء

Not available.

عمق الثلج

Not available.

Earthquake Activity

City Distance Mag. Time & Date
No recent earthquake activity has been reported nearby.
Minimum magnitude displayed is 2.5.

Coastal Water Temperatures

مكان درجات الحرارة
No Stations Reporting

Nearby Weather Stations